Terminal Aerodrome Forecast
Issued by NWS Portland, ME

Home | Current Version | Previous Version | Text Only | Print | Product List | Glossary On
Versions: 1 2 3 4 5 6 7 8 9 10 11 12 13 14 15 16 17 18 19 20 21
003
FTUS41 KGYX 081126
TAFCON
TAF
KCON 081126Z 0812/0912 04011G21KT P6SM SCT035
     FM081400 36012G21KT P6SM OVC030
      TEMPO 0815/0818 3SM -SN BR OVC020
     FM081800 36013G23KT 3/4SM -SN BR OVC015
     FM090800 34009KT 1 1/2SM -SN BR OVC025=

USA.gov is the U.S. government's official web portal to all federal, state and local government web resources and services.